Terminal Aerodrome Forecast
Issued by NWS

Home | Current Version | Previous Version | Text Only | Print | Product List | Glossary On
Versions: 1 2 3 4 5 6 7 8 9 10 11 12 13
000
FTUS46 KLOX 301100
TAFBUR
TAF
KBUR 301122Z 3012/3112 32007KT P6SM OVC080
     FM301600 VRB03KT P6SM OVC080
     FM302200 17007KT P6SM OVC080
     FM310200 VRB03KT P6SM SCT050 BKN100=

USA.gov is the U.S. government's official web portal to all federal, state and local government web resources and services.